createdAt,value
2023-01-09T00:01:35.515Z,20.00
2023-01-09T00:04:02.678Z,16.10
2023-01-09T00:06:29.769Z,17.30
2023-01-09T00:08:57.101Z,20.10
2023-01-09T00:11:24.126Z,16.20
2023-01-09T00:13:51.175Z,19.30
2023-01-09T00:16:18.709Z,18.80
2023-01-09T00:18:45.676Z,15.90
2023-01-09T00:21:13.398Z,19.60
2023-01-09T00:23:40.758Z,16.80
2023-01-09T00:26:10.311Z,20.20
2023-01-09T00:28:37.263Z,16.60
2023-01-09T00:31:05.304Z,18.60
2023-01-09T00:33:34.532Z,16.30
2023-01-09T00:36:01.608Z,16.40
2023-01-09T00:38:28.685Z,17.80
2023-01-09T00:40:57.697Z,15.20
2023-01-09T00:43:27.503Z,17.70
2023-01-09T00:45:54.581Z,15.40
2023-01-09T00:48:28.288Z,19.30
2023-01-09T00:50:57.009Z,13.80
2023-01-09T00:53:33.196Z,16.60
2023-01-09T00:56:02.876Z,15.90
2023-01-09T00:58:29.827Z,14.50
2023-01-09T01:00:56.793Z,17.80
2023-01-09T01:03:23.826Z,15.50
2023-01-09T01:06:09.542Z,15.10
2023-01-09T01:08:36.546Z,16.00
2023-01-09T01:11:09.480Z,14.80
2023-01-09T01:13:37.524Z,18.10
2023-01-09T01:16:05.626Z,15.40
2023-01-09T01:18:32.593Z,14.50
2023-01-09T01:20:59.531Z,12.50
2023-01-09T01:23:26.620Z,14.60
2023-01-09T01:25:53.621Z,12.80
2023-01-09T01:28:20.663Z,17.30
2023-01-09T01:30:47.593Z,15.40
2023-01-09T01:33:14.582Z,18.10
2023-01-09T01:35:41.631Z,16.10
2023-01-09T01:38:08.580Z,14.80
2023-01-09T01:40:36.171Z,14.40
2023-01-09T01:43:03.081Z,15.70
2023-01-09T01:45:30.437Z,13.20
2023-01-09T01:48:09.023Z,14.40
2023-01-09T01:50:43.709Z,13.80
2023-01-09T01:53:25.377Z,10.70
2023-01-09T01:56:10.601Z,14.90
2023-01-09T01:58:42.096Z,15.00
2023-01-09T02:01:09.173Z,11.00
2023-01-09T02:03:36.289Z,14.10
2023-01-09T02:06:05.025Z,12.60
2023-01-09T02:08:32.234Z,14.00
2023-01-09T02:10:59.256Z,14.80
2023-01-09T02:13:26.455Z,12.50
2023-01-09T02:16:26.704Z,13.90
2023-01-09T02:19:25.399Z,12.20
2023-01-09T02:22:12.710Z,12.80
2023-01-09T02:25:27.639Z,14.00
2023-01-09T02:27:57.707Z,10.90
2023-01-09T02:30:27.683Z,12.60
2023-01-09T02:33:03.839Z,10.50
2023-01-09T02:36:03.139Z,13.00
2023-01-09T02:38:42.009Z,11.00
2023-01-09T02:41:13.723Z,13.40
2023-01-09T02:43:41.935Z,10.80
2023-01-09T02:46:20.150Z,11.30
2023-01-09T02:48:47.113Z,14.10
2023-01-09T02:51:20.552Z,12.10
2023-01-09T02:54:01.806Z,11.70
2023-01-09T02:56:32.010Z,15.70
2023-01-09T02:59:17.950Z,12.20
2023-01-09T03:02:01.905Z,10.10
2023-01-09T03:04:32.742Z,10.50
2023-01-09T03:07:14.792Z,10.20
2023-01-09T03:09:41.829Z,10.40
2023-01-09T03:12:18.406Z,11.60
2023-01-09T03:14:48.276Z,11.80
2023-01-09T03:17:22.643Z,12.20
2023-01-09T03:19:50.008Z,11.80
2023-01-09T03:22:16.988Z,11.20
2023-01-09T03:24:44.026Z,11.80
2023-01-09T03:27:10.967Z,11.30
2023-01-09T03:29:37.947Z,10.90
2023-01-09T03:32:05.133Z,15.80
2023-01-09T03:34:32.058Z,13.30
2023-01-09T03:36:59.118Z,13.00
2023-01-09T03:39:26.109Z,11.30
2023-01-09T03:41:53.076Z,11.30
2023-01-09T03:44:20.051Z,11.70
2023-01-09T03:46:47.505Z,11.60
2023-01-09T03:49:14.780Z,10.80
2023-01-09T03:51:41.708Z,12.20
2023-01-09T03:54:08.634Z,14.50
2023-01-09T03:56:35.755Z,12.50
2023-01-09T03:59:02.693Z,11.10
2023-01-09T04:01:29.803Z,11.70
2023-01-09T04:03:56.801Z,10.50
2023-01-09T04:06:24.087Z,13.10
2023-01-09T04:08:51.033Z,9.30
2023-01-09T04:11:18.300Z,13.30
2023-01-09T04:13:45.326Z,15.60
2023-01-09T04:16:12.304Z,13.10
2023-01-09T04:18:39.229Z,15.40
2023-01-09T04:21:06.194Z,13.70
2023-01-09T04:23:33.097Z,18.00
2023-01-09T04:26:00.014Z,12.90
2023-01-09T04:28:26.977Z,12.40
2023-01-09T04:30:53.952Z,12.90
2023-01-09T06:08:15.713Z,14.30
2023-01-09T06:10:42.543Z,13.90
2023-01-09T06:13:09.420Z,10.60
2023-01-09T06:15:37.938Z,14.40
2023-01-09T06:18:04.697Z,16.20
2023-01-09T06:20:32.348Z,15.80
2023-01-09T06:22:59.090Z,16.20
2023-01-09T06:25:25.970Z,13.40
2023-01-09T06:27:53.205Z,14.60
2023-01-09T06:30:20.139Z,11.90
2023-01-09T06:32:48.681Z,13.10
2023-01-09T06:35:19.819Z,13.50
2023-01-09T06:37:47.562Z,14.80
2023-01-09T06:40:14.803Z,14.50
2023-01-09T06:42:45.288Z,14.70
2023-01-09T06:45:12.742Z,16.00
2023-01-09T06:47:39.934Z,14.60
2023-01-09T06:50:08.826Z,13.10
2023-01-09T06:52:38.775Z,13.60
2023-01-09T06:55:06.915Z,15.40
2023-01-09T06:57:33.744Z,18.10
2023-01-09T07:00:00.637Z,15.30
2023-01-09T07:02:27.718Z,13.10
2023-01-09T07:04:54.496Z,14.00
2023-01-09T07:07:22.022Z,13.00
2023-01-09T07:09:53.732Z,15.80
2023-01-09T07:12:20.601Z,15.40
2023-01-09T07:14:47.366Z,15.00
2023-01-09T07:17:14.343Z,14.80
2023-01-09T07:19:41.412Z,16.20
2023-01-09T07:22:08.295Z,14.30
2023-01-09T07:24:35.143Z,17.30
2023-01-09T07:27:02.099Z,14.10
2023-01-09T07:29:29.285Z,15.50
2023-01-09T07:31:56.718Z,15.10
2023-01-09T07:34:23.423Z,13.10
2023-01-09T07:36:51.658Z,14.90
2023-01-09T07:39:18.453Z,15.80
2023-01-09T07:41:45.383Z,14.70
2023-01-09T07:44:12.425Z,12.60
2023-01-09T07:46:39.326Z,14.50
2023-01-09T07:49:06.267Z,15.90
2023-01-09T07:51:34.456Z,12.90
2023-01-09T07:54:01.348Z,13.90
2023-01-09T07:56:28.470Z,16.50
2023-01-09T07:58:55.209Z,13.90
2023-01-09T08:01:22.246Z,17.00
2023-01-09T08:03:49.173Z,12.00
2023-01-09T08:06:18.300Z,12.70
2023-01-09T08:08:44.990Z,13.00
2023-01-09T08:11:11.952Z,14.20
2023-01-09T08:13:39.288Z,17.00
2023-01-09T08:16:06.398Z,12.00
2023-01-09T08:18:33.178Z,10.60
2023-01-09T08:20:59.953Z,12.50
2023-01-09T08:23:26.855Z,12.10
2023-01-09T08:25:53.604Z,13.20
2023-01-09T08:28:20.654Z,13.10
2023-01-09T08:30:48.459Z,14.00
2023-01-09T08:33:18.576Z,12.00
2023-01-09T08:35:45.350Z,13.20
2023-01-09T08:38:12.187Z,12.10
2023-01-09T08:40:39.327Z,13.30
2023-01-09T08:43:25.150Z,10.70
2023-01-09T08:46:10.579Z,14.00
2023-01-09T08:48:37.365Z,15.40
2023-01-09T08:51:04.344Z,12.00
2023-01-09T08:53:31.268Z,11.60
2023-01-09T08:55:58.715Z,15.60
2023-01-09T08:58:25.465Z,12.80
2023-01-09T09:00:53.930Z,13.60
2023-01-09T09:03:21.357Z,12.80
2023-01-09T09:05:48.185Z,12.20
2023-01-09T09:08:15.921Z,14.00
2023-01-09T09:10:42.945Z,11.30
2023-01-09T09:13:12.241Z,10.60
2023-01-09T09:15:39.129Z,11.00
2023-01-09T09:18:06.773Z,13.10
2023-01-09T09:20:37.638Z,10.90
2023-01-09T09:23:05.058Z,12.80
2023-01-09T09:25:32.027Z,11.80
2023-01-09T09:28:00.517Z,9.90
2023-01-09T09:30:27.515Z,14.50
2023-01-09T09:32:54.400Z,11.80
2023-01-09T09:35:22.057Z,13.10
2023-01-09T09:37:58.665Z,11.00
2023-01-09T09:40:42.384Z,14.10
2023-01-09T09:43:48.139Z,11.50
2023-01-09T09:46:21.444Z,12.30
2023-01-09T09:49:14.588Z,11.00
2023-01-09T09:51:55.422Z,9.40
2023-01-09T09:54:39.634Z,8.60
2023-01-09T09:57:10.519Z,11.80
2023-01-09T09:59:37.402Z,12.10
2023-01-09T10:02:12.546Z,10.20
2023-01-09T10:04:43.990Z,9.10
2023-01-09T10:07:22.723Z,9.70
2023-01-09T10:10:00.083Z,9.60
2023-01-09T10:12:29.683Z,10.80
2023-01-09T10:15:01.768Z,10.50
2023-01-09T10:17:44.914Z,9.70
2023-01-09T10:20:24.719Z,8.70
2023-01-09T10:23:25.353Z,10.00
2023-01-09T10:25:55.078Z,10.30
2023-01-09T10:28:37.224Z,8.00
2023-01-09T10:31:04.855Z,9.30
2023-01-09T10:33:43.690Z,10.70
2023-01-09T10:36:41.021Z,10.50
2023-01-09T10:39:12.695Z,10.50
2023-01-09T10:41:45.791Z,10.20
2023-01-09T10:44:36.665Z,10.40
2023-01-09T10:47:05.509Z,12.20
2023-01-09T10:49:32.233Z,9.30
2023-01-09T10:52:17.479Z,9.10
2023-01-09T10:54:49.171Z,11.20
2023-01-09T10:57:39.966Z,7.80
2023-01-09T11:00:13.427Z,8.10
2023-01-09T11:02:40.296Z,7.80
2023-01-09T11:05:10.704Z,8.40
2023-01-09T11:07:38.793Z,9.80
2023-01-09T11:10:09.185Z,9.90
2023-01-09T11:12:37.448Z,10.70
2023-01-09T11:15:18.866Z,9.60
2023-01-09T11:17:46.773Z,13.10
2023-01-09T11:20:18.182Z,10.50
2023-01-09T11:22:49.833Z,9.50
2023-01-09T11:25:18.105Z,14.30
2023-01-09T11:28:17.573Z,12.50
2023-01-09T11:31:11.673Z,10.00
2023-01-09T11:33:42.432Z,10.90
2023-01-09T11:36:13.099Z,10.10
2023-01-09T11:38:52.436Z,12.00
2023-01-09T11:41:28.500Z,10.10
2023-01-09T11:43:57.001Z,8.70
2023-01-09T16:30:59.102Z,10.30
2023-01-09T16:33:27.564Z,12.10
2023-01-09T16:35:54.506Z,11.20
2023-01-09T16:38:21.843Z,13.50
2023-01-09T16:41:39.895Z,12.00
2023-01-09T16:44:09.838Z,10.60
2023-01-09T16:46:43.455Z,15.50
2023-01-09T16:49:29.585Z,10.40
2023-01-09T16:51:57.236Z,13.80
2023-01-09T16:54:24.145Z,11.10
2023-01-09T16:56:52.408Z,12.50
2023-01-09T16:59:20.820Z,11.20
2023-01-09T17:01:48.422Z,14.00
2023-01-09T17:04:15.803Z,10.80
2023-01-09T17:06:42.842Z,12.80
2023-01-09T17:09:14.767Z,10.90
2023-01-09T17:11:42.104Z,12.10
2023-01-09T17:14:10.766Z,10.30
2023-01-09T17:16:37.842Z,9.90
2023-01-09T17:19:05.060Z,12.20
2023-01-09T17:21:32.245Z,12.60
2023-01-09T17:24:18.564Z,11.80
2023-01-09T18:23:23.344Z,9.80
2023-01-09T18:25:50.387Z,13.20
2023-01-09T18:28:18.675Z,10.20
2023-01-09T18:30:46.863Z,9.10
2023-01-09T18:33:14.062Z,9.10
2023-01-09T18:35:42.068Z,9.30
2023-01-09T18:38:09.054Z,8.00
2023-01-09T18:40:37.216Z,8.00
2023-01-09T18:43:06.146Z,8.80
2023-01-09T18:45:33.241Z,7.90
2023-01-09T18:48:00.233Z,8.40
2023-01-09T18:50:27.170Z,9.00
2023-01-09T18:52:54.305Z,8.90
2023-01-09T18:55:22.127Z,12.50
2023-01-09T18:57:49.123Z,8.60
2023-01-09T19:00:16.360Z,10.50
2023-01-09T19:02:43.316Z,10.00
2023-01-09T19:05:10.336Z,10.50
2023-01-09T19:07:37.244Z,11.60
2023-01-09T19:10:04.513Z,8.50
2023-01-09T19:12:31.503Z,8.40
2023-01-09T19:14:58.544Z,8.70
2023-01-09T19:17:25.530Z,10.70
2023-01-09T19:19:52.490Z,7.90
2023-01-09T19:22:19.766Z,9.10
2023-01-09T19:24:46.712Z,9.90
2023-01-09T19:27:13.605Z,7.10
2023-01-09T19:29:40.642Z,8.70
2023-01-09T19:32:08.750Z,8.10
2023-01-09T19:34:35.753Z,9.50
2023-01-09T19:37:02.741Z,8.40
2023-01-09T19:39:29.735Z,6.90
2023-01-09T19:41:56.714Z,7.20
2023-01-09T19:44:24.639Z,6.80
2023-01-09T19:46:51.854Z,7.60
2023-01-09T19:49:19.007Z,9.40
2023-01-09T19:51:46.227Z,8.40
2023-01-09T19:54:13.161Z,8.10
2023-01-09T19:56:40.982Z,8.20
2023-01-09T19:59:08.451Z,9.50
2023-01-09T20:01:37.282Z,8.30
2023-01-09T20:04:08.001Z,6.80
2023-01-09T20:06:35.202Z,7.70
2023-01-09T22:40:31.015Z,8.30
2023-01-09T22:42:57.981Z,4.40
2023-01-09T22:45:26.165Z,10.60
2023-01-09T22:47:53.085Z,7.20
2023-01-09T22:50:19.995Z,5.70
2023-01-09T22:52:48.743Z,5.80
2023-01-09T22:55:15.884Z,7.60
2023-01-09T22:57:42.873Z,6.90
2023-01-09T23:00:11.783Z,8.70
2023-01-09T23:02:38.870Z,7.10
2023-01-09T23:05:06.940Z,8.30
2023-01-09T23:07:33.899Z,7.60
2023-01-09T23:10:02.273Z,4.80
2023-01-09T23:12:29.312Z,8.20
2023-01-09T23:14:56.196Z,5.80
2023-01-09T23:17:23.132Z,5.70
2023-01-09T23:19:50.068Z,7.70
2023-01-09T23:22:17.067Z,9.00
2023-01-09T23:24:43.963Z,8.90
2023-01-09T23:27:11.011Z,6.60
2023-01-09T23:29:39.714Z,7.50
2023-01-09T23:32:06.896Z,6.60
2023-01-09T23:34:34.005Z,9.90
2023-01-09T23:37:00.984Z,9.10
2023-01-09T23:39:27.972Z,10.60
2023-01-09T23:42:13.676Z,11.30
2023-01-09T23:44:40.675Z,9.10
2023-01-09T23:47:07.726Z,9.00
2023-01-09T23:49:34.653Z,6.70
2023-01-09T23:52:06.217Z,9.20
2023-01-09T23:54:33.212Z,9.00
2023-01-09T23:57:00.221Z,10.00
2023-01-09T23:59:27.203Z,8.60
